sensor_id;sensor_type;location;lat;lon;timestamp;temperature;humidity
16229;DHT22;8222;51.462;12.630;2023-02-21T00:01:58;11.40;99.90
16229;DHT22;8222;51.462;12.630;2023-02-21T00:04:43;11.50;99.90
16229;DHT22;8222;51.462;12.630;2023-02-21T00:07:29;11.50;99.90
16229;DHT22;8222;51.462;12.630;2023-02-21T00:10:16;11.40;99.90
16229;DHT22;8222;51.462;12.630;2023-02-21T00:13:00;11.40;99.90
16229;DHT22;8222;51.462;12.630;2023-02-21T00:15:46;11.40;99.90
16229;DHT22;8222;51.462;12.630;2023-02-21T00:18:35;11.40;99.90
16229;DHT22;8222;51.462;12.630;2023-02-21T00:21:19;11.40;99.90
16229;DHT22;8222;51.462;12.630;2023-02-21T00:24:06;11.50;99.90
16229;DHT22;8222;51.462;12.630;2023-02-21T00:26:50;11.50;99.90
16229;DHT22;8222;51.462;12.630;2023-02-21T00:29:34;11.60;99.90
16229;DHT22;8222;51.462;12.630;2023-02-21T00:32:22;11.50;99.90
16229;DHT22;8222;51.462;12.630;2023-02-21T00:35:07;11.30;99.90
16229;DHT22;8222;51.462;12.630;2023-02-21T00:37:51;11.50;99.90
16229;DHT22;8222;51.462;12.630;2023-02-21T00:40:36;11.60;99.90
16229;DHT22;8222;51.462;12.630;2023-02-21T00:43:30;11.60;99.90
16229;DHT22;8222;51.462;12.630;2023-02-21T00:46:14;11.50;99.90
16229;DHT22;8222;51.462;12.630;2023-02-21T00:48:59;11.60;99.90
16229;DHT22;8222;51.462;12.630;2023-02-21T00:51:43;11.50;99.90
16229;DHT22;8222;51.462;12.630;2023-02-21T00:54:27;11.50;99.90
16229;DHT22;8222;51.462;12.630;2023-02-21T00:57:11;11.50;99.90
16229;DHT22;8222;51.462;12.630;2023-02-21T00:59:56;11.30;99.90
16229;DHT22;8222;51.462;12.630;2023-02-21T01:02:42;11.40;99.90
16229;DHT22;8222;51.462;12.630;2023-02-21T01:05:26;11.20;99.90
16229;DHT22;8222;51.462;12.630;2023-02-21T01:08:11;11.30;99.90
16229;DHT22;8222;51.462;12.630;2023-02-21T01:10:55;11.50;99.90
16229;DHT22;8222;51.462;12.630;2023-02-21T01:13:39;11.40;99.90
16229;DHT22;8222;51.462;12.630;2023-02-21T01:16:27;11.50;99.90
16229;DHT22;8222;51.462;12.630;2023-02-21T01:19:12;11.50;99.90
16229;DHT22;8222;51.462;12.630;2023-02-21T01:21:56;11.60;99.90
16229;DHT22;8222;51.462;12.630;2023-02-21T01:24:40;11.60;99.90
16229;DHT22;8222;51.462;12.630;2023-02-21T01:27:26;11.60;99.90
16229;DHT22;8222;51.462;12.630;2023-02-21T01:30:12;11.60;99.90
16229;DHT22;8222;51.462;12.630;2023-02-21T01:32:56;11.70;99.90
16229;DHT22;8222;51.462;12.630;2023-02-21T01:35:40;11.60;99.90
16229;DHT22;8222;51.462;12.630;2023-02-21T01:38:24;11.60;99.90
16229;DHT22;8222;51.462;12.630;2023-02-21T01:41:09;11.50;99.90
16229;DHT22;8222;51.462;12.630;2023-02-21T01:44:04;11.60;99.90
16229;DHT22;8222;51.462;12.630;2023-02-21T01:46:49;11.70;99.90
16229;DHT22;8222;51.462;12.630;2023-02-21T01:49:35;11.60;99.90
16229;DHT22;8222;51.462;12.630;2023-02-21T01:52:21;11.60;99.90
16229;DHT22;8222;51.462;12.630;2023-02-21T01:55:07;11.50;99.90
16229;DHT22;8222;51.462;12.630;2023-02-21T01:57:53;11.40;99.90
16229;DHT22;8222;51.462;12.630;2023-02-21T02:00:37;11.50;99.90
16229;DHT22;8222;51.462;12.630;2023-02-21T02:03:22;11.40;99.90
16229;DHT22;8222;51.462;12.630;2023-02-21T02:06:09;11.40;99.90
16229;DHT22;8222;51.462;12.630;2023-02-21T02:08:54;11.50;99.90
16229;DHT22;8222;51.462;12.630;2023-02-21T02:14:53;11.50;99.90
16229;DHT22;8222;51.462;12.630;2023-02-21T02:29:22;11.40;99.90
16229;DHT22;8222;51.462;12.630;2023-02-21T02:34:44;11.30;99.90
16229;DHT22;8222;51.462;12.630;2023-02-21T02:40:24;11.20;99.90
16229;DHT22;8222;51.462;12.630;2023-02-21T02:48:15;11.40;99.90
16229;DHT22;8222;51.462;12.630;2023-02-21T02:50:45;11.30;99.90
16229;DHT22;8222;51.462;12.630;2023-02-21T02:53:11;11.20;99.90
16229;DHT22;8222;51.462;12.630;2023-02-21T02:55:45;11.20;99.90
16229;DHT22;8222;51.462;12.630;2023-02-21T02:58:12;11.40;99.90
16229;DHT22;8222;51.462;12.630;2023-02-21T03:00:42;11.30;99.90
16229;DHT22;8222;51.462;12.630;2023-02-21T03:06:36;11.40;99.90
16229;DHT22;8222;51.462;12.630;2023-02-21T03:09:12;11.40;99.90
16229;DHT22;8222;51.462;12.630;2023-02-21T03:14:40;11.40;99.90
16229;DHT22;8222;51.462;12.630;2023-02-21T03:17:12;11.30;99.90
16229;DHT22;8222;51.462;12.630;2023-02-21T03:19:41;11.30;99.90
16229;DHT22;8222;51.462;12.630;2023-02-21T03:22:35;11.40;99.90
16229;DHT22;8222;51.462;12.630;2023-02-21T03:25:01;11.40;99.90
16229;DHT22;8222;51.462;12.630;2023-02-21T03:27:29;11.50;99.90
16229;DHT22;8222;51.462;12.630;2023-02-21T03:29:58;11.40;99.90
16229;DHT22;8222;51.462;12.630;2023-02-21T03:32:27;11.30;99.90
16229;DHT22;8222;51.462;12.630;2023-02-21T03:34:54;11.40;99.90
16229;DHT22;8222;51.462;12.630;2023-02-21T03:37:34;11.50;99.90
16229;DHT22;8222;51.462;12.630;2023-02-21T03:40:04;11.50;99.90
16229;DHT22;8222;51.462;12.630;2023-02-21T03:42:31;11.60;99.90
16229;DHT22;8222;51.462;12.630;2023-02-21T03:44:57;11.40;99.90
16229;DHT22;8222;51.462;12.630;2023-02-21T03:47:23;11.40;99.90
16229;DHT22;8222;51.462;12.630;2023-02-21T03:49:49;12.00;99.90
16229;DHT22;8222;51.462;12.630;2023-02-21T03:52:14;11.60;99.90
16229;DHT22;8222;51.462;12.630;2023-02-21T03:54:40;11.50;99.90
16229;DHT22;8222;51.462;12.630;2023-02-21T03:57:08;11.60;99.90
16229;DHT22;8222;51.462;12.630;2023-02-21T03:59:33;11.60;99.90
16229;DHT22;8222;51.462;12.630;2023-02-21T04:01:59;11.60;99.90
16229;DHT22;8222;51.462;12.630;2023-02-21T04:04:25;11.20;99.90
16229;DHT22;8222;51.462;12.630;2023-02-21T04:06:50;11.40;99.90
16229;DHT22;8222;51.462;12.630;2023-02-21T04:09:16;11.40;99.90
16229;DHT22;8222;51.462;12.630;2023-02-21T04:11:43;11.50;99.90
16229;DHT22;8222;51.462;12.630;2023-02-21T04:14:10;11.60;99.90
16229;DHT22;8222;51.462;12.630;2023-02-21T04:16:36;11.50;99.90
16229;DHT22;8222;51.462;12.630;2023-02-21T04:19:03;11.30;99.90
16229;DHT22;8222;51.462;12.630;2023-02-21T04:21:29;11.40;99.90
16229;DHT22;8222;51.462;12.630;2023-02-21T04:23:55;11.50;99.90
16229;DHT22;8222;51.462;12.630;2023-02-21T04:26:23;11.40;99.90
16229;DHT22;8222;51.462;12.630;2023-02-21T04:28:50;11.40;99.90
16229;DHT22;8222;51.462;12.630;2023-02-21T04:31:16;11.30;99.90
16229;DHT22;8222;51.462;12.630;2023-02-21T04:33:43;11.30;99.90
16229;DHT22;8222;51.462;12.630;2023-02-21T04:36:09;11.40;99.90
16229;DHT22;8222;51.462;12.630;2023-02-21T04:38:35;11.40;99.90
16229;DHT22;8222;51.462;12.630;2023-02-21T04:41:05;11.30;99.90
16229;DHT22;8222;51.462;12.630;2023-02-21T04:43:33;11.40;99.90
16229;DHT22;8222;51.462;12.630;2023-02-21T04:45:58;11.40;99.90
16229;DHT22;8222;51.462;12.630;2023-02-21T04:48:24;11.40;99.90
16229;DHT22;8222;51.462;12.630;2023-02-21T04:50:50;11.30;99.90
16229;DHT22;8222;51.462;12.630;2023-02-21T04:53:15;11.40;99.90
16229;DHT22;8222;51.462;12.630;2023-02-21T04:55:43;11.40;99.90
16229;DHT22;8222;51.462;12.630;2023-02-21T04:58:09;11.40;99.90
16229;DHT22;8222;51.462;12.630;2023-02-21T05:00:34;11.40;99.90
16229;DHT22;8222;51.462;12.630;2023-02-21T05:03:00;11.30;99.90
16229;DHT22;8222;51.462;12.630;2023-02-21T05:05:28;11.30;99.90
16229;DHT22;8222;51.462;12.630;2023-02-21T05:07:53;11.40;99.90
16229;DHT22;8222;51.462;12.630;2023-02-21T05:10:19;11.40;99.90
16229;DHT22;8222;51.462;12.630;2023-02-21T05:12:47;11.40;99.90
16229;DHT22;8222;51.462;12.630;2023-02-21T05:15:13;11.30;99.90
16229;DHT22;8222;51.462;12.630;2023-02-21T05:17:39;11.40;99.90
16229;DHT22;8222;51.462;12.630;2023-02-21T05:20:05;11.50;99.90
16229;DHT22;8222;51.462;12.630;2023-02-21T05:22:37;11.50;99.90
16229;DHT22;8222;51.462;12.630;2023-02-21T05:25:06;11.40;99.90
16229;DHT22;8222;51.462;12.630;2023-02-21T05:27:33;11.40;99.90
16229;DHT22;8222;51.462;12.630;2023-02-21T05:29:59;11.40;99.90
16229;DHT22;8222;51.462;12.630;2023-02-21T05:32:26;11.50;99.90
16229;DHT22;8222;51.462;12.630;2023-02-21T05:34:54;11.20;99.90
16229;DHT22;8222;51.462;12.630;2023-02-21T05:37:20;11.40;99.90
16229;DHT22;8222;51.462;12.630;2023-02-21T05:39:47;11.40;99.90
16229;DHT22;8222;51.462;12.630;2023-02-21T05:42:14;11.30;99.90
16229;DHT22;8222;51.462;12.630;2023-02-21T05:44:45;11.30;99.90
16229;DHT22;8222;51.462;12.630;2023-02-21T05:47:12;11.30;99.90
16229;DHT22;8222;51.462;12.630;2023-02-21T05:49:38;11.40;99.90
16229;DHT22;8222;51.462;12.630;2023-02-21T05:52:07;11.30;99.90
16229;DHT22;8222;51.462;12.630;2023-02-21T05:54:37;11.20;99.90
16229;DHT22;8222;51.462;12.630;2023-02-21T05:57:03;11.20;99.90
16229;DHT22;8222;51.462;12.630;2023-02-21T05:59:29;11.30;99.90
16229;DHT22;8222;51.462;12.630;2023-02-21T06:01:55;11.30;99.90
16229;DHT22;8222;51.462;12.630;2023-02-21T06:04:21;11.50;99.90
16229;DHT22;8222;51.462;12.630;2023-02-21T06:06:47;11.20;99.90
16229;DHT22;8222;51.462;12.630;2023-02-21T06:09:14;11.20;99.90
16229;DHT22;8222;51.462;12.630;2023-02-21T06:11:41;11.20;99.90
16229;DHT22;8222;51.462;12.630;2023-02-21T06:14:16;11.30;99.90
16229;DHT22;8222;51.462;12.630;2023-02-21T06:16:42;11.40;99.90
16229;DHT22;8222;51.462;12.630;2023-02-21T06:19:09;11.90;99.90
16229;DHT22;8222;51.462;12.630;2023-02-21T06:21:35;11.30;99.90
16229;DHT22;8222;51.462;12.630;2023-02-21T06:24:01;11.30;99.90
16229;DHT22;8222;51.462;12.630;2023-02-21T06:26:27;11.20;99.90
16229;DHT22;8222;51.462;12.630;2023-02-21T06:28:55;11.10;99.90
16229;DHT22;8222;51.462;12.630;2023-02-21T06:31:20;11.10;99.90
16229;DHT22;8222;51.462;12.630;2023-02-21T06:33:47;11.20;99.90
16229;DHT22;8222;51.462;12.630;2023-02-21T06:36:16;11.30;99.90
16229;DHT22;8222;51.462;12.630;2023-02-21T06:38:50;11.20;99.90
16229;DHT22;8222;51.462;12.630;2023-02-21T06:41:19;11.20;99.90
16229;DHT22;8222;51.462;12.630;2023-02-21T06:43:45;11.20;99.90
16229;DHT22;8222;51.462;12.630;2023-02-21T06:46:15;11.30;99.90
16229;DHT22;8222;51.462;12.630;2023-02-21T06:48:43;11.10;99.90
16229;DHT22;8222;51.462;12.630;2023-02-21T06:51:08;11.20;99.90
16229;DHT22;8222;51.462;12.630;2023-02-21T06:53:36;11.20;99.90
16229;DHT22;8222;51.462;12.630;2023-02-21T06:56:03;11.20;99.90
16229;DHT22;8222;51.462;12.630;2023-02-21T06:58:29;11.20;99.90
16229;DHT22;8222;51.462;12.630;2023-02-21T07:00:54;11.20;99.90
16229;DHT22;8222;51.462;12.630;2023-02-21T07:03:20;11.10;99.90
16229;DHT22;8222;51.462;12.630;2023-02-21T07:05:47;11.20;99.90
16229;DHT22;8222;51.462;12.630;2023-02-21T07:08:13;11.20;99.90
16229;DHT22;8222;51.462;12.630;2023-02-21T07:10:41;11.30;99.90
16229;DHT22;8222;51.462;12.630;2023-02-21T07:13:06;11.40;99.90
16229;DHT22;8222;51.462;12.630;2023-02-21T07:15:32;11.70;99.90
16229;DHT22;8222;51.462;12.630;2023-02-21T07:17:58;11.40;99.90
16229;DHT22;8222;51.462;12.630;2023-02-21T07:20:23;11.40;99.90
16229;DHT22;8222;51.462;12.630;2023-02-21T07:22:49;11.90;99.90
16229;DHT22;8222;51.462;12.630;2023-02-21T07:25:20;11.60;99.90
16229;DHT22;8222;51.462;12.630;2023-02-21T07:27:47;11.50;99.90
16229;DHT22;8222;51.462;12.630;2023-02-21T07:30:13;11.60;99.90
16229;DHT22;8222;51.462;12.630;2023-02-21T07:32:38;11.60;99.90
16229;DHT22;8222;51.462;12.630;2023-02-21T07:35:04;11.60;99.90
16229;DHT22;8222;51.462;12.630;2023-02-21T07:37:32;11.60;99.90
16229;DHT22;8222;51.462;12.630;2023-02-21T07:39:59;11.70;99.90
16229;DHT22;8222;51.462;12.630;2023-02-21T07:42:27;11.70;99.90
16229;DHT22;8222;51.462;12.630;2023-02-21T07:44:58;11.80;99.90
16229;DHT22;8222;51.462;12.630;2023-02-21T07:47:24;11.80;99.90
16229;DHT22;8222;51.462;12.630;2023-02-21T07:49:50;11.70;99.90
16229;DHT22;8222;51.462;12.630;2023-02-21T07:52:18;11.80;99.90
16229;DHT22;8222;51.462;12.630;2023-02-21T07:54:45;11.70;99.90
16229;DHT22;8222;51.462;12.630;2023-02-21T07:57:14;11.70;99.90
16229;DHT22;8222;51.462;12.630;2023-02-21T07:59:41;11.70;99.90
16229;DHT22;8222;51.462;12.630;2023-02-21T08:02:07;11.80;99.90
16229;DHT22;8222;51.462;12.630;2023-02-21T08:04:33;11.80;99.90
16229;DHT22;8222;51.462;12.630;2023-02-21T08:07:00;11.90;99.90
16229;DHT22;8222;51.462;12.630;2023-02-21T08:09:26;11.90;99.90
16229;DHT22;8222;51.462;12.630;2023-02-21T08:11:52;12.00;99.90
16229;DHT22;8222;51.462;12.630;2023-02-21T08:14:18;12.00;99.90
16229;DHT22;8222;51.462;12.630;2023-02-21T08:16:43;12.10;99.90
16229;DHT22;8222;51.462;12.630;2023-02-21T08:19:09;12.10;99.90
16229;DHT22;8222;51.462;12.630;2023-02-21T08:21:35;12.20;99.90
16229;DHT22;8222;51.462;12.630;2023-02-21T08:24:01;12.30;99.90
16229;DHT22;8222;51.462;12.630;2023-02-21T08:26:28;12.20;99.90
16229;DHT22;8222;51.462;12.630;2023-02-21T08:28:54;12.20;99.90
16229;DHT22;8222;51.462;12.630;2023-02-21T08:31:20;12.20;99.90
16229;DHT22;8222;51.462;12.630;2023-02-21T08:33:48;12.50;99.90
16229;DHT22;8222;51.462;12.630;2023-02-21T08:36:13;12.60;99.90
16229;DHT22;8222;51.462;12.630;2023-02-21T08:38:39;12.70;99.90
16229;DHT22;8222;51.462;12.630;2023-02-21T08:41:05;12.80;99.90
16229;DHT22;8222;51.462;12.630;2023-02-21T08:43:31;12.70;99.90
16229;DHT22;8222;51.462;12.630;2023-02-21T08:45:57;12.90;99.90
16229;DHT22;8222;51.462;12.630;2023-02-21T08:48:23;12.90;99.90
16229;DHT22;8222;51.462;12.630;2023-02-21T08:50:49;13.30;99.90
16229;DHT22;8222;51.462;12.630;2023-02-21T08:53:18;13.00;99.90
16229;DHT22;8222;51.462;12.630;2023-02-21T08:55:44;13.00;99.90
16229;DHT22;8222;51.462;12.630;2023-02-21T08:58:11;13.20;99.90
16229;DHT22;8222;51.462;12.630;2023-02-21T09:00:37;13.10;99.90
16229;DHT22;8222;51.462;12.630;2023-02-21T09:03:04;13.00;99.90
16229;DHT22;8222;51.462;12.630;2023-02-21T09:05:31;12.90;99.90
16229;DHT22;8222;51.462;12.630;2023-02-21T09:07:58;12.90;99.90
16229;DHT22;8222;51.462;12.630;2023-02-21T09:10:29;12.80;99.90
16229;DHT22;8222;51.462;12.630;2023-02-21T09:12:55;12.80;99.90
16229;DHT22;8222;51.462;12.630;2023-02-21T09:15:23;13.00;99.90
16229;DHT22;8222;51.462;12.630;2023-02-21T09:17:49;13.10;99.90
16229;DHT22;8222;51.462;12.630;2023-02-21T09:20:19;13.30;99.90
16229;DHT22;8222;51.462;12.630;2023-02-21T09:22:47;13.20;99.90
16229;DHT22;8222;51.462;12.630;2023-02-21T09:25:15;13.30;99.90
16229;DHT22;8222;51.462;12.630;2023-02-21T09:27:41;13.40;99.90
16229;DHT22;8222;51.462;12.630;2023-02-21T09:30:09;13.60;99.90
16229;DHT22;8222;51.462;12.630;2023-02-21T09:32:35;13.70;99.90
16229;DHT22;8222;51.462;12.630;2023-02-21T09:35:02;13.80;99.90
16229;DHT22;8222;51.462;12.630;2023-02-21T09:37:28;13.90;99.90
16229;DHT22;8222;51.462;12.630;2023-02-21T09:39:56;14.00;99.90
16229;DHT22;8222;51.462;12.630;2023-02-21T09:42:28;13.80;99.90
16229;DHT22;8222;51.462;12.630;2023-02-21T09:44:54;13.80;99.90
16229;DHT22;8222;51.462;12.630;2023-02-21T09:47:34;13.60;99.90
16229;DHT22;8222;51.462;12.630;2023-02-21T09:50:12;13.60;99.90
16229;DHT22;8222;51.462;12.630;2023-02-21T09:52:39;13.70;99.90
16229;DHT22;8222;51.462;12.630;2023-02-21T09:57:44;13.80;99.90
16229;DHT22;8222;51.462;12.630;2023-02-21T10:00:22;13.80;99.90
16229;DHT22;8222;51.462;12.630;2023-02-21T10:05:44;13.80;99.90
16229;DHT22;8222;51.462;12.630;2023-02-21T10:08:39;13.80;99.90
16229;DHT22;8222;51.462;12.630;2023-02-21T10:11:30;13.60;99.90
16229;DHT22;8222;51.462;12.630;2023-02-21T10:17:14;13.90;99.90
16229;DHT22;8222;51.462;12.630;2023-02-21T10:19:43;13.80;99.90
16229;DHT22;8222;51.462;12.630;2023-02-21T10:22:25;13.80;99.90
16229;DHT22;8222;51.462;12.630;2023-02-21T10:24:51;13.80;99.90
16229;DHT22;8222;51.462;12.630;2023-02-21T10:27:20;13.70;99.90
16229;DHT22;8222;51.462;12.630;2023-02-21T10:29:51;13.90;99.90
16229;DHT22;8222;51.462;12.630;2023-02-21T10:32:21;14.00;99.90
16229;DHT22;8222;51.462;12.630;2023-02-21T10:34:48;14.10;99.90
16229;DHT22;8222;51.462;12.630;2023-02-21T10:37:37;14.20;99.90
16229;DHT22;8222;51.462;12.630;2023-02-21T10:42:44;14.50;99.90
16229;DHT22;8222;51.462;12.630;2023-02-21T10:45:18;14.50;99.90
16229;DHT22;8222;51.462;12.630;2023-02-21T10:48:13;14.60;99.90
16229;DHT22;8222;51.462;12.630;2023-02-21T10:53:32;14.80;99.90
16229;DHT22;8222;51.462;12.630;2023-02-21T10:56:19;14.70;99.90
16229;DHT22;8222;51.462;12.630;2023-02-21T10:59:05;14.80;99.90
16229;DHT22;8222;51.462;12.630;2023-02-21T11:04:02;15.00;99.90
16229;DHT22;8222;51.462;12.630;2023-02-21T11:06:36;15.00;99.90
16229;DHT22;8222;51.462;12.630;2023-02-21T11:12:25;15.00;99.90
16229;DHT22;8222;51.462;12.630;2023-02-21T11:17:24;14.90;99.90
16229;DHT22;8222;51.462;12.630;2023-02-21T11:19:56;15.00;99.90
16229;DHT22;8222;51.462;12.630;2023-02-21T11:22:41;15.00;99.90
16229;DHT22;8222;51.462;12.630;2023-02-21T11:27:37;15.10;99.90
16229;DHT22;8222;51.462;12.630;2023-02-21T11:30:15;15.20;99.90
16229;DHT22;8222;51.462;12.630;2023-02-21T11:32:54;15.10;99.90
16229;DHT22;8222;51.462;12.630;2023-02-21T11:35:35;15.00;99.90
16229;DHT22;8222;51.462;12.630;2023-02-21T11:38:07;14.90;99.90
16229;DHT22;8222;51.462;12.630;2023-02-21T11:40:44;14.80;99.90
16229;DHT22;8222;51.462;12.630;2023-02-21T11:49:04;14.80;99.90
16229;DHT22;8222;51.462;12.630;2023-02-21T11:52:07;14.70;99.90
16229;DHT22;8222;51.462;12.630;2023-02-21T11:54:34;14.80;99.90
16229;DHT22;8222;51.462;12.630;2023-02-21T12:05:52;15.10;99.90
16229;DHT22;8222;51.462;12.630;2023-02-21T12:08:44;15.20;99.90
16229;DHT22;8222;51.462;12.630;2023-02-21T12:11:33;15.10;99.90
16229;DHT22;8222;51.462;12.630;2023-02-21T12:14:25;15.10;99.90
16229;DHT22;8222;51.462;12.630;2023-02-21T12:25:31;15.10;99.90
16229;DHT22;8222;51.462;12.630;2023-02-21T12:28:12;15.00;99.90
16229;DHT22;8222;51.462;12.630;2023-02-21T12:33:43;15.10;99.90
16229;DHT22;8222;51.462;12.630;2023-02-21T12:39:26;15.40;99.90
16229;DHT22;8222;51.462;12.630;2023-02-21T12:42:12;15.60;99.90
16229;DHT22;8222;51.462;12.630;2023-02-21T12:47:38;16.00;99.90
16229;DHT22;8222;51.462;12.630;2023-02-21T12:51:05;16.10;99.90
16229;DHT22;8222;51.462;12.630;2023-02-21T12:53:35;16.30;99.90
16229;DHT22;8222;51.462;12.630;2023-02-21T12:56:10;16.40;99.90
16229;DHT22;8222;51.462;12.630;2023-02-21T12:59:03;16.30;99.90
16229;DHT22;8222;51.462;12.630;2023-02-21T13:01:47;16.30;99.90
16229;DHT22;8222;51.462;12.630;2023-02-21T13:04:49;16.30;99.90
16229;DHT22;8222;51.462;12.630;2023-02-21T13:07:57;16.00;99.90
16229;DHT22;8222;51.462;12.630;2023-02-21T13:10:18;15.90;99.90
16229;DHT22;8222;51.462;12.630;2023-02-21T13:13:01;16.10;99.90
16229;DHT22;8222;51.462;12.630;2023-02-21T13:15:31;16.20;99.90
16229;DHT22;8222;51.462;12.630;2023-02-21T13:20:46;16.20;99.90
16229;DHT22;8222;51.462;12.630;2023-02-21T13:23:41;16.10;99.90
16229;DHT22;8222;51.462;12.630;2023-02-21T13:28:42;16.10;99.90
16229;DHT22;8222;51.462;12.630;2023-02-21T13:31:26;16.10;99.90
16229;DHT22;8222;51.462;12.630;2023-02-21T13:33:58;16.10;99.90
16229;DHT22;8222;51.462;12.630;2023-02-21T13:36:38;16.20;99.90
16229;DHT22;8222;51.462;12.630;2023-02-21T13:39:16;16.10;99.90
16229;DHT22;8222;51.462;12.630;2023-02-21T13:41:47;16.20;99.90
16229;DHT22;8222;51.462;12.630;2023-02-21T13:44:53;16.10;99.90
16229;DHT22;8222;51.462;12.630;2023-02-21T13:47:23;16.00;99.90
16229;DHT22;8222;51.462;12.630;2023-02-21T13:49:53;16.20;99.90
16229;DHT22;8222;51.462;12.630;2023-02-21T13:55:18;16.30;99.90
16229;DHT22;8222;51.462;12.630;2023-02-21T13:58:21;16.30;99.90
16229;DHT22;8222;51.462;12.630;2023-02-21T14:08:09;16.10;99.90
16229;DHT22;8222;51.462;12.630;2023-02-21T14:10:47;16.10;99.90
16229;DHT22;8222;51.462;12.630;2023-02-21T14:13:20;15.90;99.90
16229;DHT22;8222;51.462;12.630;2023-02-21T14:15:50;15.60;99.90
16229;DHT22;8222;51.462;12.630;2023-02-21T14:18:25;15.50;99.90
16229;DHT22;8222;51.462;12.630;2023-02-21T14:20:53;15.50;99.90
16229;DHT22;8222;51.462;12.630;2023-02-21T14:23:22;15.40;99.90
16229;DHT22;8222;51.462;12.630;2023-02-21T14:25:59;15.50;99.90
16229;DHT22;8222;51.462;12.630;2023-02-21T14:45:20;15.10;99.90
16229;DHT22;8222;51.462;12.630;2023-02-21T14:48:17;15.00;99.90
16229;DHT22;8222;51.462;12.630;2023-02-21T15:02:03;14.40;99.90
16229;DHT22;8222;51.462;12.630;2023-02-21T15:04:42;14.50;99.90
16229;DHT22;8222;51.462;12.630;2023-02-21T15:07:27;14.30;99.90
16229;DHT22;8222;51.462;12.630;2023-02-21T15:10:18;14.20;99.90
16229;DHT22;8222;51.462;12.630;2023-02-21T15:12:57;14.10;99.90
16229;DHT22;8222;51.462;12.630;2023-02-21T15:15:40;14.10;99.90
16229;DHT22;8222;51.462;12.630;2023-02-21T15:18:09;14.20;99.90
16229;DHT22;8222;51.462;12.630;2023-02-21T15:20:40;14.30;99.90
16229;DHT22;8222;51.462;12.630;2023-02-21T15:23:19;14.30;99.90
16229;DHT22;8222;51.462;12.630;2023-02-21T15:25:54;14.30;99.90
16229;DHT22;8222;51.462;12.630;2023-02-21T15:28:30;14.20;99.90
16229;DHT22;8222;51.462;12.630;2023-02-21T15:31:04;14.10;99.90
16229;DHT22;8222;51.462;12.630;2023-02-21T15:33:35;14.20;99.90
16229;DHT22;8222;51.462;12.630;2023-02-21T15:39:06;14.20;99.90
16229;DHT22;8222;51.462;12.630;2023-02-21T15:44:28;14.00;99.90
16229;DHT22;8222;51.462;12.630;2023-02-21T15:46:57;14.00;99.90
16229;DHT22;8222;51.462;12.630;2023-02-21T15:49:37;13.80;99.90
16229;DHT22;8222;51.462;12.630;2023-02-21T15:52:24;14.00;99.90
16229;DHT22;8222;51.462;12.630;2023-02-21T15:54:49;14.00;99.90
16229;DHT22;8222;51.462;12.630;2023-02-21T15:57:35;14.00;99.90
16229;DHT22;8222;51.462;12.630;2023-02-21T16:02:47;13.80;99.90
16229;DHT22;8222;51.462;12.630;2023-02-21T16:07:49;13.70;99.90
16229;DHT22;8222;51.462;12.630;2023-02-21T16:10:20;13.80;99.90
16229;DHT22;8222;51.462;12.630;2023-02-21T16:12:57;13.70;99.90
16229;DHT22;8222;51.462;12.630;2023-02-21T16:17:56;13.60;99.90
16229;DHT22;8222;51.462;12.630;2023-02-21T16:20:26;13.70;99.90
16229;DHT22;8222;51.462;12.630;2023-02-21T16:26:20;13.40;99.90
16229;DHT22;8222;51.462;12.630;2023-02-21T16:28:51;13.40;99.90
16229;DHT22;8222;51.462;12.630;2023-02-21T16:31:28;13.40;99.90
16229;DHT22;8222;51.462;12.630;2023-02-21T16:33:55;13.30;99.90
16229;DHT22;8222;51.462;12.630;2023-02-21T16:36:25;13.40;99.90
16229;DHT22;8222;51.462;12.630;2023-02-21T16:38:52;13.30;99.90
16229;DHT22;8222;51.462;12.630;2023-02-21T16:41:18;13.40;99.90
16229;DHT22;8222;51.462;12.630;2023-02-21T16:43:48;13.40;99.90
16229;DHT22;8222;51.462;12.630;2023-02-21T16:46:14;13.50;99.90
16229;DHT22;8222;51.462;12.630;2023-02-21T16:48:40;13.30;99.90
16229;DHT22;8222;51.462;12.630;2023-02-21T16:51:13;13.30;99.90
16229;DHT22;8222;51.462;12.630;2023-02-21T16:53:39;13.30;99.90
16229;DHT22;8222;51.462;12.630;2023-02-21T16:56:06;13.30;99.90
16229;DHT22;8222;51.462;12.630;2023-02-21T16:58:42;13.30;99.90
16229;DHT22;8222;51.462;12.630;2023-02-21T17:01:19;13.30;99.90
16229;DHT22;8222;51.462;12.630;2023-02-21T17:03:47;13.10;99.90
16229;DHT22;8222;51.462;12.630;2023-02-21T17:06:20;13.10;99.90
16229;DHT22;8222;51.462;12.630;2023-02-21T17:08:47;12.90;99.90
16229;DHT22;8222;51.462;12.630;2023-02-21T17:11:15;12.80;99.90
16229;DHT22;8222;51.462;12.630;2023-02-21T17:13:43;12.90;99.90
16229;DHT22;8222;51.462;12.630;2023-02-21T17:16:11;13.60;99.90
16229;DHT22;8222;51.462;12.630;2023-02-21T17:18:36;12.90;99.90
16229;DHT22;8222;51.462;12.630;2023-02-21T17:21:02;12.70;99.90
16229;DHT22;8222;51.462;12.630;2023-02-21T17:23:30;12.60;99.90
16229;DHT22;8222;51.462;12.630;2023-02-21T17:25:59;12.60;99.90
16229;DHT22;8222;51.462;12.630;2023-02-21T17:28:28;12.60;99.90
16229;DHT22;8222;51.462;12.630;2023-02-21T17:30:53;12.60;99.90
16229;DHT22;8222;51.462;12.630;2023-02-21T17:33:19;12.60;99.90
16229;DHT22;8222;51.462;12.630;2023-02-21T17:35:47;12.70;99.90
16229;DHT22;8222;51.462;12.630;2023-02-21T17:38:13;12.80;99.90
16229;DHT22;8222;51.462;12.630;2023-02-21T17:40:38;12.70;99.90
16229;DHT22;8222;51.462;12.630;2023-02-21T17:43:04;12.70;99.90
16229;DHT22;8222;51.462;12.630;2023-02-21T17:45:33;12.80;99.90
16229;DHT22;8222;51.462;12.630;2023-02-21T17:48:02;12.80;99.90
16229;DHT22;8222;51.462;12.630;2023-02-21T17:50:30;12.70;99.90
16229;DHT22;8222;51.462;12.630;2023-02-21T17:52:57;12.60;99.90
16229;DHT22;8222;51.462;12.630;2023-02-21T17:55:26;12.50;99.90
16229;DHT22;8222;51.462;12.630;2023-02-21T17:57:53;12.60;99.90
16229;DHT22;8222;51.462;12.630;2023-02-21T18:00:23;12.60;99.90
16229;DHT22;8222;51.462;12.630;2023-02-21T18:02:52;12.50;99.90
16229;DHT22;8222;51.462;12.630;2023-02-21T18:05:20;12.50;99.90
16229;DHT22;8222;51.462;12.630;2023-02-21T18:07:49;12.70;99.90
16229;DHT22;8222;51.462;12.630;2023-02-21T18:10:17;12.60;99.90
16229;DHT22;8222;51.462;12.630;2023-02-21T18:12:43;12.60;99.90
16229;DHT22;8222;51.462;12.630;2023-02-21T18:15:09;12.60;99.90
16229;DHT22;8222;51.462;12.630;2023-02-21T18:17:37;12.60;99.90
16229;DHT22;8222;51.462;12.630;2023-02-21T18:20:09;12.70;99.90
16229;DHT22;8222;51.462;12.630;2023-02-21T18:22:37;12.70;99.90
16229;DHT22;8222;51.462;12.630;2023-02-21T18:25:04;12.70;99.90
16229;DHT22;8222;51.462;12.630;2023-02-21T18:27:32;12.40;99.90
16229;DHT22;8222;51.462;12.630;2023-02-21T18:29:58;12.40;99.90
16229;DHT22;8222;51.462;12.630;2023-02-21T18:32:24;12.30;99.90
16229;DHT22;8222;51.462;12.630;2023-02-21T18:34:53;12.20;99.90